createdAt,value
2023-01-20T00:01:12.518Z,10.60
2023-01-20T00:03:41.263Z,12.37
2023-01-20T00:06:11.117Z,10.77
2023-01-20T00:08:39.460Z,9.83
2023-01-20T00:11:09.176Z,9.87
2023-01-20T00:13:38.256Z,9.80
2023-01-20T00:16:08.445Z,9.17
2023-01-20T00:18:36.731Z,8.90
2023-01-20T00:21:05.662Z,9.93
2023-01-20T00:23:35.554Z,14.10
2023-01-20T00:26:06.755Z,8.77
2023-01-20T00:28:35.717Z,7.77
2023-01-20T00:31:15.633Z,6.03
2023-01-20T00:33:44.120Z,8.27
2023-01-20T00:36:13.585Z,8.47
2023-01-20T00:38:43.094Z,6.40
2023-01-20T00:41:11.908Z,9.40
2023-01-20T00:43:40.508Z,10.37
2023-01-20T00:46:09.086Z,9.93
2023-01-20T00:48:37.503Z,7.20
2023-01-20T00:51:07.422Z,8.40
2023-01-20T00:53:35.853Z,5.83
2023-01-20T00:56:05.664Z,9.90
2023-01-20T00:58:33.771Z,8.23
2023-01-20T01:01:02.208Z,11.87
2023-01-20T01:03:30.568Z,11.47
2023-01-20T01:06:07.629Z,8.43
2023-01-20T01:08:35.994Z,12.20
2023-01-20T01:11:06.531Z,7.97
2023-01-20T01:13:35.005Z,7.40
2023-01-20T01:16:03.420Z,6.70
2023-01-20T01:18:31.544Z,10.60
2023-01-20T01:20:59.596Z,6.33
2023-01-20T01:23:27.628Z,11.77
2023-01-20T01:25:55.640Z,7.87
2023-01-20T01:28:25.089Z,9.63
2023-01-20T01:30:53.182Z,8.97
2023-01-20T01:33:21.293Z,10.07
2023-01-20T01:35:56.382Z,17.33
2023-01-20T01:38:24.698Z,11.53
2023-01-20T01:40:53.718Z,11.77
2023-01-20T01:43:25.734Z,13.83
2023-01-20T01:45:54.204Z,12.03
2023-01-20T01:48:25.430Z,15.47
2023-01-20T01:50:57.385Z,15.53
2023-01-20T01:53:26.633Z,15.70
2023-01-20T01:55:59.527Z,13.43
2023-01-20T01:58:33.359Z,16.63
2023-01-20T02:01:01.561Z,17.43
2023-01-20T02:03:36.516Z,14.80
2023-01-20T02:06:05.923Z,12.37
2023-01-20T02:08:34.975Z,15.80
2023-01-20T02:11:03.035Z,15.80
2023-01-20T02:13:32.939Z,16.90
2023-01-20T02:16:13.628Z,16.53
2023-01-20T02:18:55.406Z,17.30
2023-01-20T02:21:56.132Z,15.60
2023-01-20T02:24:54.944Z,16.93
2023-01-20T02:27:40.744Z,17.23
2023-01-20T02:30:50.128Z,20.63
2023-01-20T02:33:24.769Z,16.47
2023-01-20T02:35:56.684Z,19.63
2023-01-20T02:38:32.243Z,17.60
2023-01-20T02:41:09.850Z,17.20
2023-01-20T02:43:45.529Z,17.33
2023-01-20T02:46:21.795Z,19.27
2023-01-20T02:48:55.494Z,21.80
2023-01-20T02:51:28.091Z,22.33
2023-01-20T02:54:01.691Z,18.17
2023-01-20T02:56:31.314Z,21.93
2023-01-20T02:59:03.275Z,20.10
2023-01-20T03:01:34.457Z,18.17
2023-01-20T03:04:06.066Z,19.67
2023-01-20T03:06:38.320Z,23.67
2023-01-20T03:09:10.080Z,22.50
2023-01-20T03:11:42.505Z,20.37
2023-01-20T03:14:14.046Z,19.37
2023-01-20T03:16:43.127Z,20.33
2023-01-20T03:19:12.926Z,21.67
2023-01-20T03:21:41.048Z,21.53
2023-01-20T03:24:09.381Z,20.47
2023-01-20T03:26:38.926Z,21.33
2023-01-20T03:29:09.259Z,21.00
2023-01-20T03:31:40.605Z,20.53
2023-01-20T03:34:12.800Z,19.70
2023-01-20T03:36:44.679Z,23.27
2023-01-20T03:39:13.009Z,19.03
2023-01-20T03:41:52.103Z,23.43
2023-01-20T03:44:25.259Z,18.63
2023-01-20T03:46:59.316Z,23.33
2023-01-20T03:49:31.836Z,23.60
2023-01-20T03:52:06.189Z,23.27
2023-01-20T03:54:40.663Z,20.73
2023-01-20T03:57:14.998Z,21.50
2023-01-20T03:59:46.779Z,20.50
2023-01-20T04:02:14.947Z,22.00
2023-01-20T04:04:45.951Z,22.03
2023-01-20T04:07:19.675Z,21.57
2023-01-20T04:09:51.958Z,22.53
2023-01-20T04:12:20.169Z,23.87
2023-01-20T04:14:48.289Z,21.47
2023-01-20T04:17:16.754Z,22.23
2023-01-20T04:19:44.879Z,21.80
2023-01-20T04:22:20.566Z,25.73
2023-01-20T04:24:54.492Z,20.37
2023-01-20T04:27:22.571Z,21.17
2023-01-20T04:29:50.753Z,21.07
2023-01-20T04:32:18.855Z,20.80
2023-01-20T04:34:47.017Z,22.33
2023-01-20T04:37:16.409Z,24.13
2023-01-20T04:39:44.602Z,21.73
2023-01-20T04:42:13.065Z,21.40
2023-01-20T04:44:41.148Z,21.17
2023-01-20T04:47:09.252Z,21.93
2023-01-20T04:49:37.350Z,23.10
2023-01-20T04:52:05.758Z,23.10
2023-01-20T04:54:35.780Z,21.80
2023-01-20T04:57:03.819Z,20.10
2023-01-20T04:59:31.892Z,22.63
2023-01-20T05:01:59.993Z,21.50
2023-01-20T05:04:28.095Z,21.57
2023-01-20T05:06:56.159Z,22.47
2023-01-20T05:09:24.207Z,21.97
2023-01-20T05:11:53.610Z,22.50
2023-01-20T05:14:21.680Z,25.30
2023-01-20T05:16:49.676Z,25.93
2023-01-20T05:19:17.767Z,21.83
2023-01-20T05:21:45.812Z,23.37
2023-01-20T05:24:13.886Z,23.33
2023-01-20T05:26:41.938Z,22.17
2023-01-20T05:29:11.332Z,21.70
2023-01-20T05:31:43.367Z,20.27
2023-01-20T05:34:12.267Z,23.17
2023-01-20T05:36:40.353Z,24.93
2023-01-20T05:39:08.383Z,24.07
2023-01-20T05:41:36.413Z,21.80
2023-01-20T05:44:04.466Z,26.43
2023-01-20T05:46:33.969Z,25.73
2023-01-20T05:49:03.063Z,23.00
2023-01-20T05:51:32.164Z,26.90
2023-01-20T05:54:00.188Z,27.00
2023-01-20T05:56:28.205Z,25.70
2023-01-20T05:58:57.070Z,25.17
2023-01-20T06:01:25.125Z,25.27
2023-01-20T06:03:54.641Z,27.03
2023-01-20T06:06:22.802Z,24.47
2023-01-20T06:08:53.165Z,24.40
2023-01-20T06:11:21.659Z,28.20
2023-01-20T06:13:49.735Z,24.37
2023-01-20T06:16:18.555Z,27.20
2023-01-20T06:18:46.804Z,26.23
2023-01-20T06:21:16.281Z,26.17
2023-01-20T06:23:44.378Z,28.60
2023-01-20T06:26:15.011Z,28.80
2023-01-20T06:28:43.381Z,23.93
2023-01-20T06:31:14.136Z,28.30
2023-01-20T06:33:42.887Z,27.70
2023-01-20T06:36:13.687Z,27.63
2023-01-20T06:38:46.713Z,27.33
2023-01-20T06:41:15.253Z,27.27
2023-01-20T06:43:43.381Z,27.70
2023-01-20T06:46:12.924Z,26.10
2023-01-20T06:48:41.303Z,24.00
2023-01-20T06:51:11.639Z,25.03
2023-01-20T06:53:39.685Z,26.80
2023-01-20T06:56:11.680Z,24.13
2023-01-20T06:58:39.750Z,25.53
2023-01-20T07:01:10.027Z,24.93
2023-01-20T07:03:38.495Z,25.80
2023-01-20T07:06:14.998Z,26.87
2023-01-20T07:08:44.545Z,24.93
2023-01-20T07:11:14.317Z,27.03
2023-01-20T07:13:42.539Z,24.70
2023-01-20T07:16:13.195Z,24.83
2023-01-20T07:18:43.776Z,23.23
2023-01-20T07:21:12.949Z,23.50
2023-01-20T07:23:41.073Z,26.70
2023-01-20T07:26:10.943Z,26.67
2023-01-20T07:28:40.631Z,26.17
2023-01-20T07:31:10.513Z,25.03
2023-01-20T07:33:38.837Z,29.17
2023-01-20T07:36:08.038Z,32.93
2023-01-20T07:38:36.316Z,34.30
2023-01-20T07:41:06.547Z,27.70
2023-01-20T07:43:34.751Z,27.10
2023-01-20T07:46:06.132Z,25.70
2023-01-20T07:48:35.165Z,26.73
2023-01-20T07:51:05.713Z,25.80
2023-01-20T07:53:35.930Z,26.07
2023-01-20T07:56:04.974Z,27.43
2023-01-20T07:58:33.093Z,26.60
2023-01-20T08:01:09.690Z,26.57
2023-01-20T08:03:38.019Z,25.27
2023-01-20T08:06:06.643Z,27.37
2023-01-20T08:08:35.441Z,27.10
2023-01-20T08:11:04.243Z,25.53
2023-01-20T08:13:33.219Z,25.77
2023-01-20T08:16:02.550Z,24.00
2023-01-20T08:18:32.817Z,25.00
2023-01-20T08:21:00.999Z,25.07
2023-01-20T08:23:29.218Z,26.67
2023-01-20T08:25:59.931Z,24.87
2023-01-20T08:28:29.226Z,24.50
2023-01-20T08:31:04.625Z,27.43
2023-01-20T08:33:34.331Z,24.17
2023-01-20T08:36:10.995Z,24.77
2023-01-20T08:38:39.867Z,26.73
2023-01-20T08:41:08.875Z,23.80
2023-01-20T08:43:37.045Z,25.57
2023-01-20T08:46:07.867Z,25.83
2023-01-20T08:48:38.251Z,25.20
2023-01-20T08:51:07.667Z,30.40
2023-01-20T08:53:35.900Z,23.83
2023-01-20T08:56:04.687Z,26.83
2023-01-20T08:58:32.899Z,26.30
2023-01-20T09:01:01.361Z,25.40
2023-01-20T09:03:30.671Z,23.30
2023-01-20T09:06:04.354Z,26.10
2023-01-20T09:08:32.416Z,28.13
2023-01-20T09:11:04.984Z,28.60
2023-01-20T09:13:33.166Z,29.43
2023-01-20T09:16:01.249Z,29.03
2023-01-20T09:18:29.382Z,28.23
2023-01-20T09:20:59.720Z,34.27
2023-01-20T09:23:30.199Z,26.00
2023-01-20T09:26:04.953Z,26.90
2023-01-20T09:28:33.219Z,27.87
2023-01-20T09:31:01.431Z,29.17
2023-01-20T09:33:29.610Z,30.67
2023-01-20T09:35:58.216Z,30.30
2023-01-20T09:38:47.776Z,31.07
2023-01-20T09:41:36.539Z,33.93
2023-01-20T09:44:17.055Z,30.07
2023-01-20T09:47:23.039Z,31.13
2023-01-20T09:50:21.985Z,30.00
2023-01-20T09:53:02.314Z,31.30
2023-01-20T09:55:40.091Z,30.10
2023-01-20T09:58:14.467Z,33.37
2023-01-20T10:00:48.354Z,32.67
2023-01-20T10:03:22.304Z,35.63
2023-01-20T10:05:53.863Z,32.20
2023-01-20T10:08:30.172Z,35.33
2023-01-20T10:11:06.945Z,50.37
2023-01-20T10:13:39.866Z,35.37
2023-01-20T10:16:12.532Z,36.93
2023-01-20T10:18:47.814Z,33.83
2023-01-20T10:21:21.315Z,33.77
2023-01-20T10:23:53.531Z,34.83
2023-01-20T10:26:28.752Z,34.20
2023-01-20T10:29:00.413Z,35.17
2023-01-20T10:31:30.418Z,56.87
2023-01-20T10:34:02.813Z,35.03
2023-01-20T10:36:32.155Z,33.30
2023-01-20T10:39:05.047Z,33.40
2023-01-20T10:41:41.733Z,35.43
2023-01-20T10:44:13.481Z,38.90
2023-01-20T10:47:01.027Z,35.13
2023-01-20T10:49:45.569Z,36.77
2023-01-20T10:52:28.150Z,36.33
2023-01-20T10:55:07.503Z,37.57
2023-01-20T10:57:38.305Z,36.27
2023-01-20T11:00:08.856Z,35.93
2023-01-20T11:02:38.161Z,36.53
2023-01-20T11:05:18.300Z,34.80
2023-01-20T11:07:47.411Z,40.53
2023-01-20T11:10:17.914Z,39.10
2023-01-20T11:12:51.020Z,39.50
2023-01-20T11:15:21.956Z,36.57
2023-01-20T11:18:21.319Z,39.57
2023-01-20T11:20:52.314Z,38.83
2023-01-20T11:23:23.383Z,41.57
2023-01-20T11:25:59.537Z,42.33
2023-01-20T11:28:38.806Z,40.53
2023-01-20T11:31:07.246Z,38.70
2023-01-20T11:33:35.547Z,38.37
2023-01-20T11:36:05.955Z,41.43
2023-01-20T11:38:43.384Z,39.70
2023-01-20T11:41:20.149Z,37.90
2023-01-20T11:43:51.124Z,39.17
2023-01-20T11:46:29.027Z,43.20
2023-01-20T11:49:24.601Z,40.73
2023-01-20T11:51:54.694Z,39.40
2023-01-20T11:54:24.491Z,34.97
2023-01-20T11:56:56.517Z,39.23
2023-01-20T11:59:29.221Z,40.03
2023-01-20T12:02:01.738Z,42.37
2023-01-20T12:05:00.682Z,42.53
2023-01-20T12:07:32.209Z,35.33
2023-01-20T12:10:06.108Z,35.37
2023-01-20T12:12:41.041Z,40.33
2023-01-20T12:15:18.025Z,37.33
2023-01-20T12:17:55.035Z,34.23
2023-01-20T12:20:29.576Z,35.83
2023-01-20T12:23:14.424Z,34.77
2023-01-20T12:25:49.393Z,35.57
2023-01-20T12:28:22.700Z,34.97
2023-01-20T12:30:59.377Z,37.73
2023-01-20T12:33:31.643Z,36.97
2023-01-20T12:36:25.057Z,34.97
2023-01-20T12:39:30.592Z,38.90
2023-01-20T12:42:26.083Z,39.53
2023-01-20T12:44:59.586Z,40.07
2023-01-20T12:47:40.788Z,38.93
2023-01-20T12:50:25.087Z,36.30
2023-01-20T12:53:10.712Z,39.73
2023-01-20T12:55:49.897Z,35.83
2023-01-20T12:58:27.601Z,36.03
2023-01-20T13:01:12.666Z,36.37
2023-01-20T13:04:23.214Z,33.93
2023-01-20T13:07:06.038Z,35.53
2023-01-20T13:09:48.445Z,34.97
2023-01-20T13:12:34.037Z,34.13
2023-01-20T13:15:14.906Z,36.30
2023-01-20T13:17:50.042Z,39.63
2023-01-20T13:20:24.575Z,38.73
2023-01-20T13:22:54.017Z,32.87
2023-01-20T13:25:23.859Z,32.87
2023-01-20T13:27:54.603Z,34.47
2023-01-20T13:30:48.176Z,34.03
2023-01-20T13:33:25.726Z,32.57
2023-01-20T13:35:55.935Z,34.43
2023-01-20T13:38:27.857Z,32.97
2023-01-20T13:40:58.817Z,32.03
2023-01-20T13:43:51.212Z,35.67
2023-01-20T13:46:48.393Z,35.70
2023-01-20T13:49:23.524Z,32.43
2023-01-20T13:51:53.249Z,33.83
2023-01-20T13:54:43.521Z,36.53
2023-01-20T13:57:44.958Z,31.97
2023-01-20T14:00:18.281Z,30.07
2023-01-20T14:02:48.987Z,33.57
2023-01-20T14:05:26.317Z,30.23
2023-01-20T14:07:56.788Z,30.53
2023-01-20T14:10:25.543Z,33.80
2023-01-20T14:12:53.944Z,32.30
2023-01-20T14:15:35.940Z,35.67
2023-01-20T14:18:04.714Z,31.03
2023-01-20T14:20:33.171Z,37.57
2023-01-20T14:23:38.231Z,35.20
2023-01-20T14:26:11.777Z,33.50
2023-01-20T14:28:48.220Z,33.97
2023-01-20T14:31:32.059Z,35.77
2023-01-20T14:34:03.510Z,35.83
2023-01-20T14:36:33.721Z,47.50
2023-01-20T14:39:04.363Z,39.70
2023-01-20T14:41:47.929Z,53.50
2023-01-20T14:44:20.877Z,31.67
2023-01-20T14:46:52.144Z,43.53
2023-01-20T14:49:22.617Z,34.53
2023-01-20T14:51:51.929Z,33.47
2023-01-20T14:54:31.154Z,31.70
2023-01-20T14:57:03.676Z,31.83
2023-01-20T14:59:32.079Z,32.07
2023-01-20T15:02:04.094Z,29.70
2023-01-20T15:04:37.298Z,35.20
2023-01-20T15:07:06.464Z,34.43
2023-01-20T15:09:36.246Z,35.20
2023-01-20T15:12:42.730Z,34.63
2023-01-20T15:15:21.965Z,32.13
2023-01-20T15:18:23.398Z,35.17
2023-01-20T15:21:11.703Z,34.07
2023-01-20T15:23:45.938Z,34.60
2023-01-20T15:26:31.278Z,31.53
2023-01-20T15:28:59.845Z,44.37
2023-01-20T15:31:29.918Z,31.77
2023-01-20T15:33:58.329Z,42.60
2023-01-20T15:36:30.083Z,51.70
2023-01-20T15:38:58.511Z,32.63
2023-01-20T15:41:26.848Z,30.37
2023-01-20T15:43:55.329Z,34.23
2023-01-20T15:46:23.672Z,39.87
2023-01-20T15:48:53.531Z,39.17
2023-01-20T15:51:22.084Z,34.07
2023-01-20T15:53:50.644Z,32.00
2023-01-20T15:56:22.277Z,33.03
2023-01-20T15:58:51.570Z,33.97
2023-01-20T16:01:23.960Z,31.60
2023-01-20T16:03:55.739Z,31.03
2023-01-20T16:06:28.609Z,37.30
2023-01-20T16:08:57.011Z,32.50
2023-01-20T16:11:25.715Z,34.43
2023-01-20T16:13:54.249Z,33.43
2023-01-20T16:16:24.228Z,29.87
2023-01-20T16:18:54.105Z,31.17
2023-01-20T16:21:22.562Z,33.27
2023-01-20T16:23:50.879Z,34.67
2023-01-20T16:26:22.917Z,29.37
2023-01-20T16:28:51.800Z,32.23
2023-01-20T16:31:20.750Z,29.73
2023-01-20T16:33:49.192Z,33.20
2023-01-20T16:36:20.749Z,31.77
2023-01-20T16:38:49.902Z,32.10
2023-01-20T16:41:21.645Z,32.17
2023-01-20T16:43:50.673Z,30.90
2023-01-20T16:46:20.652Z,33.40
2023-01-20T16:48:49.524Z,32.30
2023-01-20T16:51:22.870Z,32.27
2023-01-20T16:53:51.313Z,32.07
2023-01-20T16:56:22.127Z,31.47
2023-01-20T16:58:51.860Z,31.27
2023-01-20T17:01:24.526Z,33.37
2023-01-20T17:03:54.888Z,32.23
2023-01-20T17:06:26.641Z,31.30
2023-01-20T17:08:56.614Z,33.17
2023-01-20T17:11:33.140Z,38.33
2023-01-20T17:14:03.887Z,34.63
2023-01-20T17:16:32.527Z,30.07
2023-01-20T17:19:01.861Z,31.67
2023-01-20T17:21:33.912Z,33.43
2023-01-20T17:24:03.750Z,31.80
2023-01-20T17:26:32.898Z,32.00
2023-01-20T17:29:03.372Z,32.20
2023-01-20T17:31:34.579Z,34.07
2023-01-20T17:34:03.079Z,35.57
2023-01-20T17:36:34.700Z,33.40
2023-01-20T17:39:03.803Z,37.97
2023-01-20T17:41:32.141Z,37.27
2023-01-20T17:44:01.148Z,34.43
2023-01-20T17:46:31.558Z,36.30
2023-01-20T17:49:00.510Z,36.60
2023-01-20T17:51:30.359Z,35.53
2023-01-20T17:54:03.775Z,30.70
2023-01-20T17:56:32.605Z,33.63
2023-01-20T17:59:00.896Z,34.60
2023-01-20T18:01:31.469Z,35.80
2023-01-20T18:04:01.098Z,37.60
2023-01-20T18:06:30.625Z,41.33
2023-01-20T18:09:01.515Z,32.83
2023-01-20T18:11:32.357Z,34.80
2023-01-20T18:14:01.839Z,36.57
2023-01-20T18:16:32.415Z,33.77
2023-01-20T18:19:00.817Z,39.70
2023-01-20T18:21:31.281Z,34.50
2023-01-20T18:24:02.133Z,39.97
2023-01-20T18:26:33.091Z,39.10
2023-01-20T18:29:03.477Z,37.57
2023-01-20T18:31:33.503Z,40.73
2023-01-20T18:34:03.872Z,38.27
2023-01-20T18:36:34.016Z,37.87
2023-01-20T18:39:06.295Z,38.87
2023-01-20T18:41:37.592Z,37.20
2023-01-20T18:44:06.908Z,37.23
2023-01-20T18:46:35.547Z,38.07
2023-01-20T18:49:05.624Z,35.43
2023-01-20T18:51:35.164Z,39.67
2023-01-20T18:54:07.660Z,31.57
2023-01-20T18:56:36.474Z,38.47
2023-01-20T18:59:06.407Z,38.73
2023-01-20T19:01:36.266Z,35.77
2023-01-20T19:04:05.740Z,36.00
2023-01-20T19:06:36.865Z,34.67
2023-01-20T19:09:07.727Z,37.80
2023-01-20T19:11:39.483Z,39.53
2023-01-20T19:14:09.401Z,37.27
2023-01-20T19:16:39.352Z,39.73
2023-01-20T19:19:08.261Z,35.53
2023-01-20T19:21:37.447Z,35.50
2023-01-20T19:24:08.117Z,37.43
2023-01-20T19:26:37.716Z,34.47
2023-01-20T19:29:07.418Z,38.73
2023-01-20T19:31:37.420Z,37.83
2023-01-20T19:34:05.731Z,37.67
2023-01-20T19:36:34.579Z,37.13
2023-01-20T19:39:03.154Z,37.57
2023-01-20T19:41:34.293Z,35.57
2023-01-20T19:44:03.446Z,36.40
2023-01-20T19:46:34.451Z,38.67
2023-01-20T19:49:03.242Z,34.30
2023-01-20T19:51:32.347Z,34.80
2023-01-20T19:54:02.186Z,35.07
2023-01-20T19:56:33.653Z,37.30
2023-01-20T19:59:02.275Z,35.10
2023-01-20T20:01:31.988Z,33.10
2023-01-20T20:04:05.499Z,40.00
2023-01-20T20:06:35.001Z,38.27
2023-01-20T20:09:05.585Z,36.00
2023-01-20T20:11:35.683Z,37.17
2023-01-20T20:14:05.636Z,41.17
2023-01-20T20:16:36.336Z,37.13
2023-01-20T20:19:05.414Z,38.20
2023-01-20T20:21:34.559Z,40.47
2023-01-20T20:24:05.239Z,38.73
2023-01-20T20:26:37.130Z,39.97
2023-01-20T20:29:07.258Z,38.83
2023-01-20T20:31:37.556Z,39.80
2023-01-20T20:34:07.661Z,36.47
2023-01-20T20:36:36.538Z,39.47
2023-01-20T20:39:05.737Z,39.93
2023-01-20T20:41:36.671Z,41.73
2023-01-20T20:44:05.749Z,39.27
2023-01-20T20:46:34.185Z,36.57
2023-01-20T20:49:02.598Z,42.47
2023-01-20T20:51:33.845Z,44.27
2023-01-20T20:54:03.615Z,43.23
2023-01-20T20:56:32.892Z,44.60
2023-01-20T20:59:03.912Z,40.27
2023-01-20T21:01:34.625Z,42.17
2023-01-20T21:04:03.347Z,41.63
2023-01-20T21:06:31.924Z,40.93
2023-01-20T21:09:00.465Z,43.53
2023-01-20T21:11:28.894Z,43.10
2023-01-20T21:13:57.117Z,47.67
2023-01-20T21:16:28.081Z,42.63
2023-01-20T21:18:57.576Z,41.33
2023-01-20T21:21:26.071Z,41.70
2023-01-20T21:23:55.477Z,39.93
2023-01-20T21:26:24.849Z,41.23
2023-01-20T21:28:53.973Z,41.57
2023-01-20T21:31:24.616Z,45.93
2023-01-20T21:33:56.979Z,39.20
2023-01-20T21:36:26.135Z,42.30
2023-01-20T21:38:54.455Z,41.43
2023-01-20T21:41:22.542Z,39.33
2023-01-20T21:44:08.687Z,43.30
2023-01-20T21:46:39.496Z,39.37
2023-01-20T21:49:27.017Z,38.87
2023-01-20T21:52:12.545Z,39.77
2023-01-20T21:54:41.530Z,44.80
2023-01-20T21:57:10.154Z,40.40
2023-01-20T21:59:38.397Z,35.80
2023-01-20T22:02:06.812Z,42.47
2023-01-20T22:04:36.728Z,41.57
2023-01-20T22:07:04.820Z,40.23
2023-01-20T22:09:33.431Z,43.53
2023-01-20T22:12:01.781Z,40.23
2023-01-20T22:14:29.898Z,42.60
2023-01-20T22:16:58.600Z,41.77
2023-01-20T22:19:27.240Z,39.60
2023-01-20T22:21:57.622Z,40.07
2023-01-20T22:24:25.775Z,43.40
2023-01-20T22:26:53.896Z,40.50
2023-01-20T22:29:22.805Z,40.77
2023-01-20T22:31:53.693Z,42.27
2023-01-20T22:34:22.561Z,43.37
2023-01-20T22:36:50.753Z,41.97
2023-01-20T22:39:20.316Z,41.10
2023-01-20T22:41:48.399Z,45.43
2023-01-20T22:44:16.579Z,49.93
2023-01-20T22:46:44.771Z,49.63
2023-01-20T22:49:13.587Z,47.90
2023-01-20T22:51:41.699Z,44.40
2023-01-20T22:54:11.252Z,45.63
2023-01-20T22:56:40.742Z,50.30
2023-01-20T22:59:08.828Z,50.60
2023-01-20T23:01:37.373Z,48.10
2023-01-20T23:04:06.925Z,50.67
2023-01-20T23:06:36.749Z,47.60
2023-01-20T23:09:07.000Z,46.90
2023-01-20T23:11:38.188Z,45.87
2023-01-20T23:14:10.737Z,46.60
2023-01-20T23:16:38.948Z,48.57
2023-01-20T23:19:07.920Z,47.07
2023-01-20T23:21:36.657Z,47.57
2023-01-20T23:24:05.015Z,49.83
2023-01-20T23:26:34.291Z,51.13
2023-01-20T23:29:02.429Z,43.00
2023-01-20T23:31:33.599Z,51.13
2023-01-20T23:34:01.809Z,47.87
2023-01-20T23:36:29.906Z,53.83
2023-01-20T23:38:58.042Z,43.73
2023-01-20T23:41:26.481Z,51.13
2023-01-20T23:43:54.536Z,47.30
2023-01-20T23:46:22.609Z,50.60
2023-01-20T23:48:51.999Z,50.93
2023-01-20T23:51:20.199Z,54.33
2023-01-20T23:53:48.305Z,55.27
2023-01-20T23:56:18.877Z,55.97
2023-01-20T23:58:47.207Z,54.90
